sensor_id;sensor_type;location;lat;lon;timestamp;temperature;humidity
23087;DHT22;11712;51.134;4.156;2022-12-31T00:00:29;13.80;99.90
23087;DHT22;11712;51.134;4.156;2022-12-31T00:02:54;13.80;99.90
23087;DHT22;11712;51.134;4.156;2022-12-31T00:05:20;13.80;99.90
23087;DHT22;11712;51.134;4.156;2022-12-31T00:07:47;13.80;99.90
23087;DHT22;11712;51.134;4.156;2022-12-31T00:10:13;13.70;99.90
23087;DHT22;11712;51.134;4.156;2022-12-31T00:12:38;13.70;99.90
23087;DHT22;11712;51.134;4.156;2022-12-31T00:15:04;13.70;99.90
23087;DHT22;11712;51.134;4.156;2022-12-31T00:17:30;13.70;99.90
23087;DHT22;11712;51.134;4.156;2022-12-31T00:19:56;13.70;99.90
23087;DHT22;11712;51.134;4.156;2022-12-31T00:22:21;13.70;99.90
23087;DHT22;11712;51.134;4.156;2022-12-31T00:24:47;13.60;99.90
23087;DHT22;11712;51.134;4.156;2022-12-31T00:27:13;13.60;99.90
23087;DHT22;11712;51.134;4.156;2022-12-31T00:29:38;13.50;99.90
23087;DHT22;11712;51.134;4.156;2022-12-31T00:32:04;13.50;99.90
23087;DHT22;11712;51.134;4.156;2022-12-31T00:34:30;13.50;99.90
23087;DHT22;11712;51.134;4.156;2022-12-31T00:36:56;13.40;99.90
23087;DHT22;11712;51.134;4.156;2022-12-31T00:39:21;13.40;99.90
23087;DHT22;11712;51.134;4.156;2022-12-31T00:41:47;13.40;99.90
23087;DHT22;11712;51.134;4.156;2022-12-31T00:44:13;13.40;99.90
23087;DHT22;11712;51.134;4.156;2022-12-31T00:46:39;13.50;99.90
23087;DHT22;11712;51.134;4.156;2022-12-31T00:49:04;13.40;99.90
23087;DHT22;11712;51.134;4.156;2022-12-31T00:51:30;13.50;99.90
23087;DHT22;11712;51.134;4.156;2022-12-31T00:53:56;13.50;99.90
23087;DHT22;11712;51.134;4.156;2022-12-31T00:56:26;13.40;99.90
23087;DHT22;11712;51.134;4.156;2022-12-31T00:58:51;13.50;99.90
23087;DHT22;11712;51.134;4.156;2022-12-31T01:01:23;13.50;99.90
23087;DHT22;11712;51.134;4.156;2022-12-31T01:03:51;13.50;99.90
23087;DHT22;11712;51.134;4.156;2022-12-31T01:06:17;13.50;99.90
23087;DHT22;11712;51.134;4.156;2022-12-31T01:08:43;13.40;99.90
23087;DHT22;11712;51.134;4.156;2022-12-31T01:11:10;13.40;99.90
23087;DHT22;11712;51.134;4.156;2022-12-31T01:13:52;13.40;99.90
23087;DHT22;11712;51.134;4.156;2022-12-31T01:16:33;13.40;99.90
23087;DHT22;11712;51.134;4.156;2022-12-31T01:19:01;13.50;99.90
23087;DHT22;11712;51.134;4.156;2022-12-31T01:21:27;13.60;99.90
23087;DHT22;11712;51.134;4.156;2022-12-31T01:23:53;13.50;99.90
23087;DHT22;11712;51.134;4.156;2022-12-31T01:26:19;13.40;99.90
23087;DHT22;11712;51.134;4.156;2022-12-31T01:28:46;13.30;99.90
23087;DHT22;11712;51.134;4.156;2022-12-31T01:31:15;13.10;99.90
23087;DHT22;11712;51.134;4.156;2022-12-31T01:33:41;13.00;99.90
23087;DHT22;11712;51.134;4.156;2022-12-31T01:36:13;13.00;99.90
23087;DHT22;11712;51.134;4.156;2022-12-31T01:38:40;13.00;99.90
23087;DHT22;11712;51.134;4.156;2022-12-31T01:41:07;12.90;99.90
23087;DHT22;11712;51.134;4.156;2022-12-31T01:46:10;13.00;99.90
23087;DHT22;11712;51.134;4.156;2022-12-31T01:48:37;12.90;99.90
23087;DHT22;11712;51.134;4.156;2022-12-31T01:51:04;13.00;99.90
23087;DHT22;11712;51.134;4.156;2022-12-31T01:53:31;13.10;99.90
23087;DHT22;11712;51.134;4.156;2022-12-31T01:55:58;13.20;99.90
23087;DHT22;11712;51.134;4.156;2022-12-31T01:58:29;13.30;99.90
23087;DHT22;11712;51.134;4.156;2022-12-31T02:00:57;13.20;99.90
23087;DHT22;11712;51.134;4.156;2022-12-31T02:03:25;13.20;99.90
23087;DHT22;11712;51.134;4.156;2022-12-31T02:06:12;13.10;99.90
23087;DHT22;11712;51.134;4.156;2022-12-31T02:08:39;13.00;99.90
23087;DHT22;11712;51.134;4.156;2022-12-31T02:11:29;13.00;99.90
23087;DHT22;11712;51.134;4.156;2022-12-31T02:14:00;13.00;99.90
23087;DHT22;11712;51.134;4.156;2022-12-31T02:19:20;13.00;99.90
23087;DHT22;11712;51.134;4.156;2022-12-31T02:21:59;13.00;99.90
23087;DHT22;11712;51.134;4.156;2022-12-31T02:24:56;13.00;99.90
23087;DHT22;11712;51.134;4.156;2022-12-31T02:30:16;13.00;99.90
23087;DHT22;11712;51.134;4.156;2022-12-31T02:40:52;13.00;99.90
23087;DHT22;11712;51.134;4.156;2022-12-31T02:43:19;12.90;99.90
23087;DHT22;11712;51.134;4.156;2022-12-31T02:45:48;12.90;99.90
23087;DHT22;11712;51.134;4.156;2022-12-31T02:48:30;13.00;99.90
23087;DHT22;11712;51.134;4.156;2022-12-31T02:51:09;13.00;99.90
23087;DHT22;11712;51.134;4.156;2022-12-31T02:56:44;12.90;99.90
23087;DHT22;11712;51.134;4.156;2022-12-31T02:59:49;12.90;99.90
23087;DHT22;11712;51.134;4.156;2022-12-31T03:02:37;13.00;99.90
23087;DHT22;11712;51.134;4.156;2022-12-31T03:05:05;12.90;99.90
23087;DHT22;11712;51.134;4.156;2022-12-31T03:07:32;12.90;99.90
23087;DHT22;11712;51.134;4.156;2022-12-31T03:09:59;12.90;99.90
23087;DHT22;11712;51.134;4.156;2022-12-31T03:12:28;13.00;99.90
23087;DHT22;11712;51.134;4.156;2022-12-31T03:15:23;13.10;99.90
23087;DHT22;11712;51.134;4.156;2022-12-31T03:20:39;13.10;99.90
23087;DHT22;11712;51.134;4.156;2022-12-31T03:23:39;13.30;99.90
23087;DHT22;11712;51.134;4.156;2022-12-31T03:26:08;13.60;99.90
23087;DHT22;11712;51.134;4.156;2022-12-31T03:28:36;13.90;99.90
23087;DHT22;11712;51.134;4.156;2022-12-31T03:31:02;14.10;99.90
23087;DHT22;11712;51.134;4.156;2022-12-31T03:33:33;14.20;99.90
23087;DHT22;11712;51.134;4.156;2022-12-31T03:36:06;14.40;99.90
23087;DHT22;11712;51.134;4.156;2022-12-31T03:38:32;14.40;99.90
23087;DHT22;11712;51.134;4.156;2022-12-31T03:40:58;14.50;99.90
23087;DHT22;11712;51.134;4.156;2022-12-31T03:43:24;14.50;99.90
23087;DHT22;11712;51.134;4.156;2022-12-31T03:45:51;14.60;99.90
23087;DHT22;11712;51.134;4.156;2022-12-31T03:48:18;14.70;99.90
23087;DHT22;11712;51.134;4.156;2022-12-31T03:50:44;14.70;99.90
23087;DHT22;11712;51.134;4.156;2022-12-31T03:53:10;14.70;99.90
23087;DHT22;11712;51.134;4.156;2022-12-31T03:55:35;14.80;99.90
23087;DHT22;11712;51.134;4.156;2022-12-31T03:58:02;14.80;99.90
23087;DHT22;11712;51.134;4.156;2022-12-31T04:00:27;14.90;99.90
23087;DHT22;11712;51.134;4.156;2022-12-31T04:02:53;15.00;99.90
23087;DHT22;11712;51.134;4.156;2022-12-31T04:05:19;15.00;99.90
23087;DHT22;11712;51.134;4.156;2022-12-31T04:07:45;15.00;99.90
23087;DHT22;11712;51.134;4.156;2022-12-31T04:10:13;14.90;99.90
23087;DHT22;11712;51.134;4.156;2022-12-31T04:12:39;14.90;99.90
23087;DHT22;11712;51.134;4.156;2022-12-31T04:15:06;14.90;99.90
23087;DHT22;11712;51.134;4.156;2022-12-31T04:17:32;15.00;99.90
23087;DHT22;11712;51.134;4.156;2022-12-31T04:19:58;15.10;99.90
23087;DHT22;11712;51.134;4.156;2022-12-31T04:22:24;15.10;99.90
23087;DHT22;11712;51.134;4.156;2022-12-31T04:24:50;15.20;99.90
23087;DHT22;11712;51.134;4.156;2022-12-31T04:27:16;15.30;99.90
23087;DHT22;11712;51.134;4.156;2022-12-31T04:29:42;15.30;99.90
23087;DHT22;11712;51.134;4.156;2022-12-31T04:32:08;15.40;99.90
23087;DHT22;11712;51.134;4.156;2022-12-31T04:34:34;15.40;99.90
23087;DHT22;11712;51.134;4.156;2022-12-31T04:37:00;15.40;99.90
23087;DHT22;11712;51.134;4.156;2022-12-31T04:39:26;15.40;99.90
23087;DHT22;11712;51.134;4.156;2022-12-31T04:41:52;15.40;99.90
23087;DHT22;11712;51.134;4.156;2022-12-31T04:44:19;15.40;99.90
23087;DHT22;11712;51.134;4.156;2022-12-31T04:46:45;15.40;99.90
23087;DHT22;11712;51.134;4.156;2022-12-31T04:49:10;15.40;99.90
23087;DHT22;11712;51.134;4.156;2022-12-31T04:51:37;15.40;99.90
23087;DHT22;11712;51.134;4.156;2022-12-31T04:54:03;15.40;99.90
23087;DHT22;11712;51.134;4.156;2022-12-31T04:56:29;15.40;99.90
23087;DHT22;11712;51.134;4.156;2022-12-31T04:58:55;15.40;99.90
23087;DHT22;11712;51.134;4.156;2022-12-31T05:01:21;15.60;99.90
23087;DHT22;11712;51.134;4.156;2022-12-31T05:03:47;15.50;99.90
23087;DHT22;11712;51.134;4.156;2022-12-31T05:06:16;15.40;99.90
23087;DHT22;11712;51.134;4.156;2022-12-31T05:08:42;15.40;99.90
23087;DHT22;11712;51.134;4.156;2022-12-31T05:11:09;15.50;99.90
23087;DHT22;11712;51.134;4.156;2022-12-31T05:13:35;15.50;99.90
23087;DHT22;11712;51.134;4.156;2022-12-31T05:16:01;15.50;99.90
23087;DHT22;11712;51.134;4.156;2022-12-31T05:18:28;15.50;99.90
23087;DHT22;11712;51.134;4.156;2022-12-31T05:20:54;15.70;99.90
23087;DHT22;11712;51.134;4.156;2022-12-31T05:23:20;15.60;99.90
23087;DHT22;11712;51.134;4.156;2022-12-31T05:25:46;15.70;99.90
23087;DHT22;11712;51.134;4.156;2022-12-31T05:28:12;15.70;99.90
23087;DHT22;11712;51.134;4.156;2022-12-31T05:30:38;15.80;99.90
23087;DHT22;11712;51.134;4.156;2022-12-31T05:33:04;15.90;99.90
23087;DHT22;11712;51.134;4.156;2022-12-31T05:35:30;15.90;99.90
23087;DHT22;11712;51.134;4.156;2022-12-31T05:37:56;15.90;99.90
23087;DHT22;11712;51.134;4.156;2022-12-31T05:40:21;15.90;99.90
23087;DHT22;11712;51.134;4.156;2022-12-31T05:42:48;15.90;99.90
23087;DHT22;11712;51.134;4.156;2022-12-31T05:45:14;15.80;99.90
23087;DHT22;11712;51.134;4.156;2022-12-31T05:47:41;15.90;99.90
23087;DHT22;11712;51.134;4.156;2022-12-31T05:50:08;15.80;99.90
23087;DHT22;11712;51.134;4.156;2022-12-31T05:52:34;15.80;99.90
23087;DHT22;11712;51.134;4.156;2022-12-31T05:55:00;15.90;99.90
23087;DHT22;11712;51.134;4.156;2022-12-31T05:57:26;15.90;99.90
23087;DHT22;11712;51.134;4.156;2022-12-31T05:59:51;15.90;99.90
23087;DHT22;11712;51.134;4.156;2022-12-31T06:02:19;15.90;99.90
23087;DHT22;11712;51.134;4.156;2022-12-31T06:04:44;15.90;99.90
23087;DHT22;11712;51.134;4.156;2022-12-31T06:07:10;15.90;99.90
23087;DHT22;11712;51.134;4.156;2022-12-31T06:09:36;16.00;99.90
23087;DHT22;11712;51.134;4.156;2022-12-31T06:12:02;16.00;99.90
23087;DHT22;11712;51.134;4.156;2022-12-31T06:14:28;16.00;99.90
23087;DHT22;11712;51.134;4.156;2022-12-31T06:16:53;16.10;99.90
23087;DHT22;11712;51.134;4.156;2022-12-31T06:19:19;16.00;99.90
23087;DHT22;11712;51.134;4.156;2022-12-31T06:21:45;15.90;99.90
23087;DHT22;11712;51.134;4.156;2022-12-31T06:24:10;15.90;99.90
23087;DHT22;11712;51.134;4.156;2022-12-31T06:26:36;15.90;99.90
23087;DHT22;11712;51.134;4.156;2022-12-31T06:29:02;16.00;99.90
23087;DHT22;11712;51.134;4.156;2022-12-31T06:31:28;16.10;99.90
23087;DHT22;11712;51.134;4.156;2022-12-31T06:33:53;16.10;99.90
23087;DHT22;11712;51.134;4.156;2022-12-31T06:36:19;16.00;99.90
23087;DHT22;11712;51.134;4.156;2022-12-31T06:38:46;16.00;99.90
23087;DHT22;11712;51.134;4.156;2022-12-31T06:41:14;16.00;99.90
23087;DHT22;11712;51.134;4.156;2022-12-31T06:43:41;16.10;99.90
23087;DHT22;11712;51.134;4.156;2022-12-31T06:46:12;16.10;99.90
23087;DHT22;11712;51.134;4.156;2022-12-31T06:48:38;16.10;99.90
23087;DHT22;11712;51.134;4.156;2022-12-31T06:51:15;16.20;99.90
23087;DHT22;11712;51.134;4.156;2022-12-31T06:53:41;16.10;99.90
23087;DHT22;11712;51.134;4.156;2022-12-31T06:56:13;16.10;99.90
23087;DHT22;11712;51.134;4.156;2022-12-31T06:58:40;16.10;99.90
23087;DHT22;11712;51.134;4.156;2022-12-31T07:07:25;16.30;99.90
23087;DHT22;11712;51.134;4.156;2022-12-31T07:21:15;16.20;99.90
23087;DHT22;11712;51.134;4.156;2022-12-31T07:23:42;16.20;99.90
23087;DHT22;11712;51.134;4.156;2022-12-31T07:26:11;16.10;99.90
23087;DHT22;11712;51.134;4.156;2022-12-31T07:28:50;16.10;99.90
23087;DHT22;11712;51.134;4.156;2022-12-31T07:42:32;15.90;99.90
23087;DHT22;11712;51.134;4.156;2022-12-31T07:45:17;15.90;99.90
23087;DHT22;11712;51.134;4.156;2022-12-31T07:47:44;16.00;99.90
23087;DHT22;11712;51.134;4.156;2022-12-31T07:50:14;15.90;99.90
23087;DHT22;11712;51.134;4.156;2022-12-31T07:52:41;15.90;99.90
23087;DHT22;11712;51.134;4.156;2022-12-31T07:55:07;16.00;99.90
23087;DHT22;11712;51.134;4.156;2022-12-31T07:57:47;16.00;99.90
23087;DHT22;11712;51.134;4.156;2022-12-31T08:00:14;15.90;99.90
23087;DHT22;11712;51.134;4.156;2022-12-31T08:13:21;15.70;99.90
23087;DHT22;11712;51.134;4.156;2022-12-31T08:15:47;15.70;99.90
23087;DHT22;11712;51.134;4.156;2022-12-31T08:18:13;15.70;99.90
23087;DHT22;11712;51.134;4.156;2022-12-31T08:23:39;15.60;99.90
23087;DHT22;11712;51.134;4.156;2022-12-31T08:26:22;15.50;99.90
23087;DHT22;11712;51.134;4.156;2022-12-31T08:29:01;15.50;99.90
23087;DHT22;11712;51.134;4.156;2022-12-31T08:32:28;15.40;99.90
23087;DHT22;11712;51.134;4.156;2022-12-31T08:37:43;15.30;99.90
23087;DHT22;11712;51.134;4.156;2022-12-31T08:40:27;15.40;99.90
23087;DHT22;11712;51.134;4.156;2022-12-31T08:45:46;15.50;99.90
23087;DHT22;11712;51.134;4.156;2022-12-31T08:50:53;15.70;99.90
23087;DHT22;11712;51.134;4.156;2022-12-31T08:53:19;15.80;99.90
23087;DHT22;11712;51.134;4.156;2022-12-31T08:55:46;15.80;99.90
23087;DHT22;11712;51.134;4.156;2022-12-31T09:01:13;15.80;99.90
23087;DHT22;11712;51.134;4.156;2022-12-31T09:04:14;16.00;99.90
23087;DHT22;11712;51.134;4.156;2022-12-31T09:06:48;16.10;99.90
23087;DHT22;11712;51.134;4.156;2022-12-31T09:09:21;16.10;99.90
23087;DHT22;11712;51.134;4.156;2022-12-31T09:11:59;16.10;99.90
23087;DHT22;11712;51.134;4.156;2022-12-31T09:14:46;16.10;99.90
23087;DHT22;11712;51.134;4.156;2022-12-31T09:19:53;16.20;99.90
23087;DHT22;11712;51.134;4.156;2022-12-31T09:22:19;16.20;99.90
23087;DHT22;11712;51.134;4.156;2022-12-31T09:24:45;16.30;99.90
23087;DHT22;11712;51.134;4.156;2022-12-31T09:27:39;16.20;99.90
23087;DHT22;11712;51.134;4.156;2022-12-31T09:30:10;16.20;99.90
23087;DHT22;11712;51.134;4.156;2022-12-31T09:46:04;16.30;99.90
23087;DHT22;11712;51.134;4.156;2022-12-31T09:59:49;16.30;99.90
23087;DHT22;11712;51.134;4.156;2022-12-31T10:08:08;16.10;99.90
23087;DHT22;11712;51.134;4.156;2022-12-31T10:10:52;16.00;99.90
23087;DHT22;11712;51.134;4.156;2022-12-31T10:13:47;16.00;99.90
23087;DHT22;11712;51.134;4.156;2022-12-31T10:16:24;16.00;99.90
23087;DHT22;11712;51.134;4.156;2022-12-31T10:22:01;15.90;99.90
23087;DHT22;11712;51.134;4.156;2022-12-31T10:24:39;15.90;99.90
23087;DHT22;11712;51.134;4.156;2022-12-31T10:30:11;16.10;99.90
23087;DHT22;11712;51.134;4.156;2022-12-31T10:32:49;16.20;99.90
23087;DHT22;11712;51.134;4.156;2022-12-31T10:38:54;16.20;99.90
23087;DHT22;11712;51.134;4.156;2022-12-31T10:44:47;16.10;99.90
23087;DHT22;11712;51.134;4.156;2022-12-31T10:54:55;16.00;99.90
23087;DHT22;11712;51.134;4.156;2022-12-31T11:08:40;16.00;99.90
23087;DHT22;11712;51.134;4.156;2022-12-31T11:17:31;16.30;99.90
23087;DHT22;11712;51.134;4.156;2022-12-31T11:20:26;16.30;99.90
23087;DHT22;11712;51.134;4.156;2022-12-31T11:23:19;16.10;99.90
23087;DHT22;11712;51.134;4.156;2022-12-31T11:34:07;16.10;99.90
23087;DHT22;11712;51.134;4.156;2022-12-31T11:56:36;15.90;99.90
23087;DHT22;11712;51.134;4.156;2022-12-31T11:59:08;15.80;99.90
23087;DHT22;11712;51.134;4.156;2022-12-31T12:01:46;15.80;99.90
23087;DHT22;11712;51.134;4.156;2022-12-31T12:04:14;15.80;99.90
23087;DHT22;11712;51.134;4.156;2022-12-31T12:06:40;15.90;99.90
23087;DHT22;11712;51.134;4.156;2022-12-31T12:09:14;15.90;99.90
23087;DHT22;11712;51.134;4.156;2022-12-31T12:11:41;15.90;99.90
23087;DHT22;11712;51.134;4.156;2022-12-31T12:15:16;15.90;99.90
23087;DHT22;11712;51.134;4.156;2022-12-31T12:17:20;16.00;99.90
23087;DHT22;11712;51.134;4.156;2022-12-31T12:19:54;16.00;99.90
23087;DHT22;11712;51.134;4.156;2022-12-31T12:22:25;16.00;99.90
23087;DHT22;11712;51.134;4.156;2022-12-31T12:27:22;16.10;99.90
23087;DHT22;11712;51.134;4.156;2022-12-31T12:29:48;16.20;99.90
23087;DHT22;11712;51.134;4.156;2022-12-31T12:32:16;16.30;99.90
23087;DHT22;11712;51.134;4.156;2022-12-31T12:34:42;16.20;99.90
23087;DHT22;11712;51.134;4.156;2022-12-31T12:40:01;16.30;99.90
23087;DHT22;11712;51.134;4.156;2022-12-31T12:42:28;16.30;99.90
23087;DHT22;11712;51.134;4.156;2022-12-31T12:45:28;16.30;99.90
23087;DHT22;11712;51.134;4.156;2022-12-31T12:48:02;16.40;99.90
23087;DHT22;11712;51.134;4.156;2022-12-31T12:50:38;16.40;99.90
23087;DHT22;11712;51.134;4.156;2022-12-31T13:10:32;16.30;99.90
23087;DHT22;11712;51.134;4.156;2022-12-31T13:13:18;16.30;99.90
23087;DHT22;11712;51.134;4.156;2022-12-31T13:24:46;16.30;99.90
23087;DHT22;11712;51.134;4.156;2022-12-31T13:27:26;16.30;99.90
23087;DHT22;11712;51.134;4.156;2022-12-31T13:29:56;16.20;99.90
23087;DHT22;11712;51.134;4.156;2022-12-31T13:32:45;16.20;99.90
23087;DHT22;11712;51.134;4.156;2022-12-31T13:35:35;16.20;99.90
23087;DHT22;11712;51.134;4.156;2022-12-31T13:38:12;16.20;99.90
23087;DHT22;11712;51.134;4.156;2022-12-31T13:51:49;16.10;99.90
23087;DHT22;11712;51.134;4.156;2022-12-31T13:57:23;15.90;99.90
23087;DHT22;11712;51.134;4.156;2022-12-31T13:59:57;16.00;99.90
23087;DHT22;11712;51.134;4.156;2022-12-31T14:05:22;16.00;99.90
23087;DHT22;11712;51.134;4.156;2022-12-31T14:07:54;15.90;99.90
23087;DHT22;11712;51.134;4.156;2022-12-31T14:10:50;15.90;99.90
23087;DHT22;11712;51.134;4.156;2022-12-31T14:27:16;16.00;99.90
23087;DHT22;11712;51.134;4.156;2022-12-31T14:29:56;15.90;99.90
23087;DHT22;11712;51.134;4.156;2022-12-31T14:52:21;15.90;99.90
23087;DHT22;11712;51.134;4.156;2022-12-31T14:55:01;15.90;99.90
23087;DHT22;11712;51.134;4.156;2022-12-31T14:57:42;16.00;99.90
23087;DHT22;11712;51.134;4.156;2022-12-31T15:00:49;15.90;99.90
23087;DHT22;11712;51.134;4.156;2022-12-31T15:11:17;15.90;99.90
23087;DHT22;11712;51.134;4.156;2022-12-31T15:17:46;16.00;99.90
23087;DHT22;11712;51.134;4.156;2022-12-31T15:22:46;15.80;99.90
23087;DHT22;11712;51.134;4.156;2022-12-31T15:25:26;15.90;99.90
23087;DHT22;11712;51.134;4.156;2022-12-31T15:27:53;15.90;99.90
23087;DHT22;11712;51.134;4.156;2022-12-31T15:30:39;15.80;99.90
23087;DHT22;11712;51.134;4.156;2022-12-31T15:33:31;15.80;99.90
23087;DHT22;11712;51.134;4.156;2022-12-31T15:36:16;15.80;99.90
23087;DHT22;11712;51.134;4.156;2022-12-31T15:38:43;15.80;99.90
23087;DHT22;11712;51.134;4.156;2022-12-31T15:41:23;15.80;99.90
23087;DHT22;11712;51.134;4.156;2022-12-31T15:46:32;15.60;99.90
23087;DHT22;11712;51.134;4.156;2022-12-31T15:49:04;15.60;99.90
23087;DHT22;11712;51.134;4.156;2022-12-31T15:51:54;15.60;99.90
23087;DHT22;11712;51.134;4.156;2022-12-31T15:54:26;15.60;99.90
23087;DHT22;11712;51.134;4.156;2022-12-31T15:56:57;15.60;99.90
23087;DHT22;11712;51.134;4.156;2022-12-31T15:59:23;15.60;99.90
23087;DHT22;11712;51.134;4.156;2022-12-31T16:01:53;15.60;99.90
23087;DHT22;11712;51.134;4.156;2022-12-31T16:04:22;15.50;99.90
23087;DHT22;11712;51.134;4.156;2022-12-31T16:06:48;15.60;99.90
23087;DHT22;11712;51.134;4.156;2022-12-31T16:09:23;15.60;99.90
23087;DHT22;11712;51.134;4.156;2022-12-31T16:11:51;15.60;99.90
23087;DHT22;11712;51.134;4.156;2022-12-31T16:14:38;15.60;99.90
23087;DHT22;11712;51.134;4.156;2022-12-31T16:17:05;15.50;99.90
23087;DHT22;11712;51.134;4.156;2022-12-31T16:19:40;15.50;99.90
23087;DHT22;11712;51.134;4.156;2022-12-31T16:22:22;15.50;99.90
23087;DHT22;11712;51.134;4.156;2022-12-31T16:24:59;15.50;99.90
23087;DHT22;11712;51.134;4.156;2022-12-31T16:27:26;15.40;99.90
23087;DHT22;11712;51.134;4.156;2022-12-31T16:29:59;15.50;99.90
23087;DHT22;11712;51.134;4.156;2022-12-31T16:32:38;15.50;99.90
23087;DHT22;11712;51.134;4.156;2022-12-31T16:35:32;15.60;99.90
23087;DHT22;11712;51.134;4.156;2022-12-31T16:40:39;15.50;99.90
23087;DHT22;11712;51.134;4.156;2022-12-31T16:43:25;15.50;99.90
23087;DHT22;11712;51.134;4.156;2022-12-31T16:45:51;15.50;99.90
23087;DHT22;11712;51.134;4.156;2022-12-31T16:48:18;15.60;99.90
23087;DHT22;11712;51.134;4.156;2022-12-31T16:50:53;15.60;99.90
23087;DHT22;11712;51.134;4.156;2022-12-31T16:53:23;15.50;99.90
23087;DHT22;11712;51.134;4.156;2022-12-31T16:56:01;15.50;99.90
23087;DHT22;11712;51.134;4.156;2022-12-31T16:58:33;15.50;99.90
23087;DHT22;11712;51.134;4.156;2022-12-31T17:01:22;15.40;99.90
23087;DHT22;11712;51.134;4.156;2022-12-31T17:03:53;15.40;99.90
23087;DHT22;11712;51.134;4.156;2022-12-31T17:06:21;15.40;99.90
23087;DHT22;11712;51.134;4.156;2022-12-31T17:13:55;15.40;99.90
23087;DHT22;11712;51.134;4.156;2022-12-31T17:16:21;15.40;99.90
23087;DHT22;11712;51.134;4.156;2022-12-31T17:18:47;15.40;99.90
23087;DHT22;11712;51.134;4.156;2022-12-31T17:21:13;15.40;99.90
23087;DHT22;11712;51.134;4.156;2022-12-31T17:23:40;15.40;99.90
23087;DHT22;11712;51.134;4.156;2022-12-31T17:28:47;15.40;99.90
23087;DHT22;11712;51.134;4.156;2022-12-31T17:34:03;15.50;99.90
23087;DHT22;11712;51.134;4.156;2022-12-31T17:36:29;15.50;99.90
23087;DHT22;11712;51.134;4.156;2022-12-31T17:38:54;15.40;99.90
23087;DHT22;11712;51.134;4.156;2022-12-31T17:41:26;15.40;99.90
23087;DHT22;11712;51.134;4.156;2022-12-31T17:43:54;15.40;99.90
23087;DHT22;11712;51.134;4.156;2022-12-31T17:46:21;15.40;99.90
23087;DHT22;11712;51.134;4.156;2022-12-31T17:48:58;15.50;99.90
23087;DHT22;11712;51.134;4.156;2022-12-31T17:51:25;15.30;99.90
23087;DHT22;11712;51.134;4.156;2022-12-31T17:53:50;15.20;99.90
23087;DHT22;11712;51.134;4.156;2022-12-31T17:56:16;15.20;99.90
23087;DHT22;11712;51.134;4.156;2022-12-31T17:58:47;15.20;99.90
23087;DHT22;11712;51.134;4.156;2022-12-31T18:01:16;15.30;99.90
23087;DHT22;11712;51.134;4.156;2022-12-31T18:03:43;15.30;99.90
23087;DHT22;11712;51.134;4.156;2022-12-31T18:06:09;15.30;99.90
23087;DHT22;11712;51.134;4.156;2022-12-31T18:08:35;15.30;99.90
23087;DHT22;11712;51.134;4.156;2022-12-31T18:11:01;15.40;99.90
23087;DHT22;11712;51.134;4.156;2022-12-31T18:13:27;15.30;99.90
23087;DHT22;11712;51.134;4.156;2022-12-31T18:15:53;15.30;99.90
23087;DHT22;11712;51.134;4.156;2022-12-31T18:18:24;15.20;99.90
23087;DHT22;11712;51.134;4.156;2022-12-31T18:20:53;15.30;99.90
23087;DHT22;11712;51.134;4.156;2022-12-31T18:23:41;15.30;99.90
23087;DHT22;11712;51.134;4.156;2022-12-31T18:26:10;15.40;99.90
23087;DHT22;11712;51.134;4.156;2022-12-31T18:28:37;15.30;99.90
23087;DHT22;11712;51.134;4.156;2022-12-31T18:31:02;15.40;99.90
23087;DHT22;11712;51.134;4.156;2022-12-31T18:33:34;15.50;99.90
23087;DHT22;11712;51.134;4.156;2022-12-31T18:36:19;15.50;99.90
23087;DHT22;11712;51.134;4.156;2022-12-31T18:38:45;15.50;99.90
23087;DHT22;11712;51.134;4.156;2022-12-31T18:41:19;15.60;99.90
23087;DHT22;11712;51.134;4.156;2022-12-31T18:43:46;15.40;99.90
23087;DHT22;11712;51.134;4.156;2022-12-31T18:46:13;15.50;99.90
23087;DHT22;11712;51.134;4.156;2022-12-31T18:48:39;15.50;99.90
23087;DHT22;11712;51.134;4.156;2022-12-31T18:51:09;15.50;99.90
23087;DHT22;11712;51.134;4.156;2022-12-31T18:53:36;15.40;99.90
23087;DHT22;11712;51.134;4.156;2022-12-31T18:56:02;15.40;99.90
23087;DHT22;11712;51.134;4.156;2022-12-31T18:58:27;15.30;99.90
23087;DHT22;11712;51.134;4.156;2022-12-31T19:00:53;15.40;99.90
23087;DHT22;11712;51.134;4.156;2022-12-31T19:03:21;15.30;99.90
23087;DHT22;11712;51.134;4.156;2022-12-31T19:05:48;15.40;99.90
23087;DHT22;11712;51.134;4.156;2022-12-31T19:08:19;15.40;99.90
23087;DHT22;11712;51.134;4.156;2022-12-31T19:10:46;15.30;99.90
23087;DHT22;11712;51.134;4.156;2022-12-31T19:13:13;15.30;99.90
23087;DHT22;11712;51.134;4.156;2022-12-31T19:15:45;15.50;99.90
23087;DHT22;11712;51.134;4.156;2022-12-31T19:18:11;15.40;99.90
23087;DHT22;11712;51.134;4.156;2022-12-31T19:20:37;15.20;99.90
23087;DHT22;11712;51.134;4.156;2022-12-31T19:23:04;15.30;99.90
23087;DHT22;11712;51.134;4.156;2022-12-31T19:25:33;15.20;99.90
23087;DHT22;11712;51.134;4.156;2022-12-31T19:28:02;15.20;99.90
23087;DHT22;11712;51.134;4.156;2022-12-31T19:30:32;15.30;99.90
23087;DHT22;11712;51.134;4.156;2022-12-31T19:32:58;15.30;99.90
23087;DHT22;11712;51.134;4.156;2022-12-31T19:35:25;15.30;99.90
23087;DHT22;11712;51.134;4.156;2022-12-31T19:37:52;15.30;99.90
23087;DHT22;11712;51.134;4.156;2022-12-31T19:40:24;15.20;99.90
23087;DHT22;11712;51.134;4.156;2022-12-31T19:43:11;15.30;99.90
23087;DHT22;11712;51.134;4.156;2022-12-31T19:45:39;15.30;99.90
23087;DHT22;11712;51.134;4.156;2022-12-31T19:48:05;15.40;99.90
23087;DHT22;11712;51.134;4.156;2022-12-31T19:50:30;15.40;99.90
23087;DHT22;11712;51.134;4.156;2022-12-31T19:52:58;15.30;99.90
23087;DHT22;11712;51.134;4.156;2022-12-31T19:55:24;15.20;99.90
23087;DHT22;11712;51.134;4.156;2022-12-31T19:57:50;15.20;99.90
23087;DHT22;11712;51.134;4.156;2022-12-31T20:00:18;15.20;99.90
23087;DHT22;11712;51.134;4.156;2022-12-31T20:02:45;15.00;99.90
23087;DHT22;11712;51.134;4.156;2022-12-31T20:05:14;15.00;99.90
23087;DHT22;11712;51.134;4.156;2022-12-31T20:07:39;14.90;99.90
23087;DHT22;11712;51.134;4.156;2022-12-31T20:10:06;15.00;99.90
23087;DHT22;11712;51.134;4.156;2022-12-31T20:12:32;14.90;99.90
23087;DHT22;11712;51.134;4.156;2022-12-31T20:14:58;14.80;99.90
23087;DHT22;11712;51.134;4.156;2022-12-31T20:17:24;15.00;99.90
23087;DHT22;11712;51.134;4.156;2022-12-31T20:19:50;15.00;99.90
23087;DHT22;11712;51.134;4.156;2022-12-31T20:22:16;15.00;99.90
23087;DHT22;11712;51.134;4.156;2022-12-31T20:24:41;15.10;99.90
23087;DHT22;11712;51.134;4.156;2022-12-31T20:27:07;15.20;99.90
23087;DHT22;11712;51.134;4.156;2022-12-31T20:29:33;15.10;99.90
23087;DHT22;11712;51.134;4.156;2022-12-31T20:31:59;15.10;99.90
23087;DHT22;11712;51.134;4.156;2022-12-31T20:34:25;15.20;99.90
23087;DHT22;11712;51.134;4.156;2022-12-31T20:36:50;15.00;99.90
23087;DHT22;11712;51.134;4.156;2022-12-31T20:39:16;15.00;99.90